Greenview, CA (96037)

3:50 AM PDT on August 20, 2014 (GMT -0700)
KCAETNA3 | Change Station
CLOSE
Current Station
Personal Weather Station
Location: Island Rd, Scott Valley, CA
Elevation: 2728 ft
Nearby Weather Stations

Elev 2728 ft 41.55 °N, 122.85 °W | Updated 21 seconds ago

Clear
Clear
54.2 °F
Feels Like 54.2 °F
N
0.0
Wind Variable Wind from NNW
Gusts 2.0 mph

Today
High -- | Low -- °F
--% Chance of Precip.
Yesterday
High -- | Low -- °F
Precip. -- in
6:25 AM 8:03 PM
Waning Crescent, 22% visible
Pressure 29.87 in
Visibility 10.0 miles
Clouds Clear
Dew Point 51 °F
Humidity 88%
Rainfall 0.00 in
Snow Depth Not available.
UV 0 out of 12
Pollen 5.00 out of 12
Air Quality Not available.
Flu Activity Not available.
METAR KSIY 200953Z AUTO 36008KT 10SM CLR 18/11 A2992 RMK AO2 SLP114 T01830106

More Conditions Fewer Conditions

Pressure 29.87 in
Visibility 10.0 miles
Clouds Clear
Dew Point 51 °F
Humidity 88%
Rainfall 0.00 in
Snow Depth Not available.
UV 0 out of 12
Pollen 5.00 out of 12
Air Quality Not available.
Flu Activity Not available.
METAR KSIY 200953Z AUTO 36008KT 10SM CLR 18/11 A2992 RMK AO2 SLP114 T01830106

More Conditions Fewer Conditions

10-Day Weather Forecast

Almanac

Astronomy

Aug. 20, 2014 Rise Set
Actual Time 6:25 AM PDT 8:03 PM PDT
Civil Twilight 5:56 AM PDT 8:32 PM PDT
Nautical Twilight 5:20 AM PDT 9:08 PM PDT
Astronomical Twilight 4:42 AM PDT 9:46 PM PDT
Moon 2:08 AM PDT 4:54 PM PDT
Length of Visible Light 14h 36m
Length of Day
13h 37m
Tomorrow will be 2m 32s shorter.
Waning Crescent, 22% of the Moon is Illuminated
Today
Waning Crescent
Aug 25
New
Sep 2
First Quarter
Sep 8
Full
Sep 15
Last Quarter

Today's Extremes

State Highs State Lows

Community

WunderPhotos

Upload Photos

1,745,605 photos uploaded!

Nearby

Snow Depth

Station Depth Elevation
Adin Mountain 1 in 6200 ft
Crowder Flat 0 in 5100 ft
Cedar Pass 0 in 7100 ft
Fallen Leaf 0 in 6300 ft
Echo Peak 1 in 7800 ft

Earthquake Activity

City Distance Mag. Time & Date
Rio Dell, California 101 miles 2.5 6:16 PM PDT
2014-08-13
Minimum magnitude displayed is 2.5.

Coastal Water Temperatures

Place Temperature
No Stations Reporting

Nearby Weather Stations